sensor_id;sensor_type;location;lat;lon;timestamp;pressure;altitude;pressure_sealevel;temperature;humidity
21504;BME280;10913;51.992;9.228;2023-04-10T00:01:01;101118.19;;;5.34;92.23
21504;BME280;10913;51.992;9.228;2023-04-10T00:03:27;101122.50;;;5.32;91.96
21504;BME280;10913;51.992;9.228;2023-04-10T00:05:53;101127.69;;;5.31;91.70
21504;BME280;10913;51.992;9.228;2023-04-10T00:08:22;101121.50;;;5.29;91.56
21504;BME280;10913;51.992;9.228;2023-04-10T00:10:47;101124.97;;;5.28;91.68
21504;BME280;10913;51.992;9.228;2023-04-10T00:13:13;101124.00;;;5.24;91.72
21504;BME280;10913;51.992;9.228;2023-04-10T00:15:39;101122.13;;;5.20;91.87
21504;BME280;10913;51.992;9.228;2023-04-10T00:18:05;101113.28;;;5.15;92.19
21504;BME280;10913;51.992;9.228;2023-04-10T00:20:30;101117.53;;;5.11;92.37
21504;BME280;10913;51.992;9.228;2023-04-10T00:22:55;101112.13;;;5.05;92.73
21504;BME280;10913;51.992;9.228;2023-04-10T00:25:21;101110.19;;;5.00;93.10
21504;BME280;10913;51.992;9.228;2023-04-10T00:27:47;101108.47;;;5.00;93.01
21504;BME280;10913;51.992;9.228;2023-04-10T00:30:13;101115.47;;;5.01;93.39
21504;BME280;10913;51.992;9.228;2023-04-10T00:32:38;101110.25;;;5.01;93.36
21504;BME280;10913;51.992;9.228;2023-04-10T00:35:04;101114.59;;;5.01;93.26
21504;BME280;10913;51.992;9.228;2023-04-10T00:37:29;101102.34;;;5.00;93.27
21504;BME280;10913;51.992;9.228;2023-04-10T00:39:55;101117.22;;;5.01;93.32
21504;BME280;10913;51.992;9.228;2023-04-10T00:42:20;101112.81;;;4.98;93.31
21504;BME280;10913;51.992;9.228;2023-04-10T00:44:45;101114.53;;;4.98;93.34
21504;BME280;10913;51.992;9.228;2023-04-10T00:47:11;101111.88;;;4.96;92.99
21504;BME280;10913;51.992;9.228;2023-04-10T00:49:37;101105.66;;;4.93;93.19
21504;BME280;10913;51.992;9.228;2023-04-10T00:52:02;101109.06;;;4.90;93.34
21504;BME280;10913;51.992;9.228;2023-04-10T00:54:29;101103.72;;;4.87;93.26
21504;BME280;10913;51.992;9.228;2023-04-10T00:56:55;101100.09;;;4.82;93.35
21504;BME280;10913;51.992;9.228;2023-04-10T00:59:21;101100.84;;;4.78;93.65
21504;BME280;10913;51.992;9.228;2023-04-10T01:01:47;101099.09;;;4.77;93.80
21504;BME280;10913;51.992;9.228;2023-04-10T01:04:13;101095.44;;;4.72;93.61
21504;BME280;10913;51.992;9.228;2023-04-10T01:14:32;101103.09;;;4.66;93.05
21504;BME280;10913;51.992;9.228;2023-04-10T01:17:03;101097.75;;;4.63;93.19
21504;BME280;10913;51.992;9.228;2023-04-10T01:21:57;101098.53;;;4.59;93.31
21504;BME280;10913;51.992;9.228;2023-04-10T01:29:35;101100.97;;;4.53;93.77
21504;BME280;10913;51.992;9.228;2023-04-10T01:32:07;101098.25;;;4.49;93.68
21504;BME280;10913;51.992;9.228;2023-04-10T01:34:39;101096.38;;;4.45;93.80
21504;BME280;10913;51.992;9.228;2023-04-10T01:37:19;101089.41;;;4.46;93.74
21504;BME280;10913;51.992;9.228;2023-04-10T01:39:53;101098.88;;;4.42;93.72
21504;BME280;10913;51.992;9.228;2023-04-10T01:42:21;101093.59;;;4.39;93.71
21504;BME280;10913;51.992;9.228;2023-04-10T01:44:48;101094.31;;;4.35;93.62
21504;BME280;10913;51.992;9.228;2023-04-10T01:47:15;101099.47;;;4.32;93.54
21504;BME280;10913;51.992;9.228;2023-04-10T01:49:44;101090.56;;;4.27;93.42
21504;BME280;10913;51.992;9.228;2023-04-10T01:52:12;101099.06;;;4.20;94.00
21504;BME280;10913;51.992;9.228;2023-04-10T01:54:38;101098.19;;;4.20;94.39
21504;BME280;10913;51.992;9.228;2023-04-10T01:57:04;101092.09;;;4.19;94.19
21504;BME280;10913;51.992;9.228;2023-04-10T01:59:31;101096.41;;;4.19;93.83
21504;BME280;10913;51.992;9.228;2023-04-10T02:01:58;101094.66;;;4.18;93.84
21504;BME280;10913;51.992;9.228;2023-04-10T02:04:24;101090.19;;;4.15;94.06
21504;BME280;10913;51.992;9.228;2023-04-10T02:07:12;101084.88;;;4.12;94.16
21504;BME280;10913;51.992;9.228;2023-04-10T02:09:49;101086.53;;;4.10;94.59
21504;BME280;10913;51.992;9.228;2023-04-10T02:12:29;101088.22;;;4.08;94.77
21504;BME280;10913;51.992;9.228;2023-04-10T02:14:59;101089.06;;;4.07;94.83
21504;BME280;10913;51.992;9.228;2023-04-10T02:17:28;101082.94;;;4.06;94.87
21504;BME280;10913;51.992;9.228;2023-04-10T02:19:57;101076.75;;;4.04;94.90
21504;BME280;10913;51.992;9.228;2023-04-10T02:22:23;101083.66;;;4.02;94.67
21504;BME280;10913;51.992;9.228;2023-04-10T02:24:52;101084.44;;;4.00;94.93
21504;BME280;10913;51.992;9.228;2023-04-10T02:27:32;101080.03;;;3.97;95.02
21504;BME280;10913;51.992;9.228;2023-04-10T02:29:59;101077.28;;;3.93;95.09
21504;BME280;10913;51.992;9.228;2023-04-10T02:32:25;101073.78;;;3.92;94.99
21504;BME280;10913;51.992;9.228;2023-04-10T02:34:51;101072.00;;;3.91;94.81
21504;BME280;10913;51.992;9.228;2023-04-10T02:37:16;101072.84;;;3.90;94.47
21504;BME280;10913;51.992;9.228;2023-04-10T02:39:42;101064.06;;;3.88;94.49
21504;BME280;10913;51.992;9.228;2023-04-10T02:42:07;101065.72;;;3.86;93.97
21504;BME280;10913;51.992;9.228;2023-04-10T02:44:33;101063.06;;;3.85;94.18
21504;BME280;10913;51.992;9.228;2023-04-10T02:46:58;101063.00;;;3.83;94.22
21504;BME280;10913;51.992;9.228;2023-04-10T02:49:23;101064.66;;;3.79;94.76
21504;BME280;10913;51.992;9.228;2023-04-10T02:51:49;101061.09;;;3.77;94.98
21504;BME280;10913;51.992;9.228;2023-04-10T02:54:14;101056.75;;;3.78;94.96
21504;BME280;10913;51.992;9.228;2023-04-10T02:56:39;101064.66;;;3.79;94.72
21504;BME280;10913;51.992;9.228;2023-04-10T02:59:05;101059.44;;;3.79;94.23
21504;BME280;10913;51.992;9.228;2023-04-10T03:01:31;101059.31;;;3.76;94.58
21504;BME280;10913;51.992;9.228;2023-04-10T03:03:56;101055.81;;;3.76;94.47
21504;BME280;10913;51.992;9.228;2023-04-10T03:06:22;101057.44;;;3.72;94.94
21504;BME280;10913;51.992;9.228;2023-04-10T03:08:51;101051.28;;;3.70;95.01
21504;BME280;10913;51.992;9.228;2023-04-10T03:11:16;101052.09;;;3.69;95.32
21504;BME280;10913;51.992;9.228;2023-04-10T03:13:42;101052.09;;;3.69;95.45
21504;BME280;10913;51.992;9.228;2023-04-10T03:16:07;101052.94;;;3.68;95.60
21504;BME280;10913;51.992;9.228;2023-04-10T03:18:33;101052.00;;;3.66;95.66
21504;BME280;10913;51.992;9.228;2023-04-10T03:20:58;101044.09;;;3.65;95.77
21504;BME280;10913;51.992;9.228;2023-04-10T03:23:24;101044.06;;;3.63;95.74
21504;BME280;10913;51.992;9.228;2023-04-10T03:25:50;101043.94;;;3.60;95.52
21504;BME280;10913;51.992;9.228;2023-04-10T03:28:21;101036.88;;;3.56;95.52
21504;BME280;10913;51.992;9.228;2023-04-10T03:30:48;101042.78;;;3.51;95.52
21504;BME280;10913;51.992;9.228;2023-04-10T03:33:14;101033.94;;;3.47;95.27
21504;BME280;10913;51.992;9.228;2023-04-10T03:35:40;101036.44;;;3.44;95.77
21504;BME280;10913;51.992;9.228;2023-04-10T03:38:06;101030.22;;;3.40;95.78
21504;BME280;10913;51.992;9.228;2023-04-10T03:40:31;101034.53;;;3.38;95.95
21504;BME280;10913;51.992;9.228;2023-04-10T03:42:58;101029.22;;;3.35;96.14
21504;BME280;10913;51.992;9.228;2023-04-10T03:45:23;101029.94;;;3.31;95.87
21504;BME280;10913;51.992;9.228;2023-04-10T03:47:49;101032.50;;;3.30;96.53
21504;BME280;10913;51.992;9.228;2023-04-10T03:50:14;101025.47;;;3.29;96.43
21504;BME280;10913;51.992;9.228;2023-04-10T03:52:40;101029.00;;;3.29;96.77
21504;BME280;10913;51.992;9.228;2023-04-10T03:55:05;101029.88;;;3.30;96.94
21504;BME280;10913;51.992;9.228;2023-04-10T03:57:31;101029.00;;;3.29;96.63
21504;BME280;10913;51.992;9.228;2023-04-10T03:59:56;101027.16;;;3.27;96.41
21504;BME280;10913;51.992;9.228;2023-04-10T04:02:21;101030.59;;;3.26;96.43
21504;BME280;10913;51.992;9.228;2023-04-10T04:04:47;101029.66;;;3.24;96.33
21504;BME280;10913;51.992;9.228;2023-04-10T04:07:12;101029.66;;;3.24;96.57
21504;BME280;10913;51.992;9.228;2023-04-10T04:09:38;101032.22;;;3.22;96.56
21504;BME280;10913;51.992;9.228;2023-04-10T04:12:05;101024.31;;;3.21;96.81
21504;BME280;10913;51.992;9.228;2023-04-10T04:14:31;101027.81;;;3.20;96.74
21504;BME280;10913;51.992;9.228;2023-04-10T04:16:56;101032.16;;;3.21;96.67
21504;BME280;10913;51.992;9.228;2023-04-10T04:19:22;101032.13;;;3.19;96.62
21504;BME280;10913;51.992;9.228;2023-04-10T04:21:47;101028.53;;;3.16;96.53
21504;BME280;10913;51.992;9.228;2023-04-10T04:24:12;101028.41;;;3.13;97.06
21504;BME280;10913;51.992;9.228;2023-04-10T04:26:38;101022.19;;;3.09;97.00
21504;BME280;10913;51.992;9.228;2023-04-10T04:29:03;101020.34;;;3.06;97.14
21504;BME280;10913;51.992;9.228;2023-04-10T04:31:28;101022.91;;;3.05;96.99
21504;BME280;10913;51.992;9.228;2023-04-10T04:33:57;101026.34;;;3.04;97.08
21504;BME280;10913;51.992;9.228;2023-04-10T04:36:22;101028.13;;;3.05;97.03
21504;BME280;10913;51.992;9.228;2023-04-10T04:38:48;101022.03;;;3.04;96.85
21504;BME280;10913;51.992;9.228;2023-04-10T04:41:13;101034.25;;;3.05;96.88
21504;BME280;10913;51.992;9.228;2023-04-10T04:43:40;101034.25;;;3.05;96.61
21504;BME280;10913;51.992;9.228;2023-04-10T04:46:05;101034.25;;;3.05;96.61
21504;BME280;10913;51.992;9.228;2023-04-10T04:48:30;101034.25;;;3.05;96.63
21504;BME280;10913;51.992;9.228;2023-04-10T04:50:56;101031.56;;;3.04;96.48
21504;BME280;10913;51.992;9.228;2023-04-10T04:53:21;101032.41;;;3.03;96.49
21504;BME280;10913;51.992;9.228;2023-04-10T04:55:47;101025.53;;;3.05;96.22
21504;BME280;10913;51.992;9.228;2023-04-10T04:58:12;101035.97;;;3.05;96.27
21504;BME280;10913;51.992;9.228;2023-04-10T05:00:37;101035.13;;;3.06;96.44
21504;BME280;10913;51.992;9.228;2023-04-10T05:03:03;101035.91;;;3.03;96.62
21504;BME280;10913;51.992;9.228;2023-04-10T05:05:30;101031.56;;;3.04;97.28
21504;BME280;10913;51.992;9.228;2023-04-10T05:07:55;101032.53;;;3.06;97.25
21504;BME280;10913;51.992;9.228;2023-04-10T05:10:21;101036.13;;;3.09;97.06
21504;BME280;10913;51.992;9.228;2023-04-10T05:12:46;101032.84;;;3.15;97.08
21504;BME280;10913;51.992;9.228;2023-04-10T05:15:12;101033.94;;;3.22;96.70
21504;BME280;10913;51.992;9.228;2023-04-10T05:17:37;101030.72;;;3.29;96.34
21504;BME280;10913;51.992;9.228;2023-04-10T05:20:03;101035.31;;;3.36;95.87
21504;BME280;10913;51.992;9.228;2023-04-10T05:22:29;101032.84;;;3.40;95.85
21504;BME280;10913;51.992;9.228;2023-04-10T05:24:55;101034.78;;;3.46;96.18
21504;BME280;10913;51.992;9.228;2023-04-10T05:27:20;101032.38;;;3.52;96.00
21504;BME280;10913;51.992;9.228;2023-04-10T05:29:46;101035.22;;;3.58;96.01
21504;BME280;10913;51.992;9.228;2023-04-10T05:32:11;101034.44;;;3.62;96.03
21504;BME280;10913;51.992;9.228;2023-04-10T05:34:36;101029.31;;;3.65;96.01
21504;BME280;10913;51.992;9.228;2023-04-10T05:37:02;101032.03;;;3.68;96.26
21504;BME280;10913;51.992;9.228;2023-04-10T05:39:27;101024.31;;;3.71;97.11
21504;BME280;10913;51.992;9.228;2023-04-10T05:41:52;101030.56;;;3.76;97.37
21504;BME280;10913;51.992;9.228;2023-04-10T05:44:18;101033.28;;;3.79;97.88
21504;BME280;10913;51.992;9.228;2023-04-10T05:46:43;101033.38;;;3.83;98.42
21504;BME280;10913;51.992;9.228;2023-04-10T05:49:08;101040.56;;;3.90;97.98
21504;BME280;10913;51.992;9.228;2023-04-10T05:51:34;101037.41;;;4.00;97.26
21504;BME280;10913;51.992;9.228;2023-04-10T05:53:59;101036.91;;;4.11;96.72
21504;BME280;10913;51.992;9.228;2023-04-10T05:56:25;101037.16;;;4.19;96.99
21504;BME280;10913;51.992;9.228;2023-04-10T05:58:50;101027.06;;;4.31;95.98
21504;BME280;10913;51.992;9.228;2023-04-10T06:01:15;101030.81;;;4.41;95.59
21504;BME280;10913;51.992;9.228;2023-04-10T06:03:41;101026.75;;;4.50;95.68
21504;BME280;10913;51.992;9.228;2023-04-10T06:06:06;101026.13;;;4.58;95.24
21504;BME280;10913;51.992;9.228;2023-04-10T06:08:32;101026.31;;;4.65;95.04
21504;BME280;10913;51.992;9.228;2023-04-10T06:10:58;101018.69;;;4.73;94.68
21504;BME280;10913;51.992;9.228;2023-04-10T06:13:24;101023.38;;;4.84;95.03
21504;BME280;10913;51.992;9.228;2023-04-10T06:15:49;101015.00;;;4.96;94.65
21504;BME280;10913;51.992;9.228;2023-04-10T06:18:15;101017.84;;;5.05;95.19
21504;BME280;10913;51.992;9.228;2023-04-10T06:20:40;101015.44;;;5.13;96.09
21504;BME280;10913;51.992;9.228;2023-04-10T06:23:06;101013.94;;;5.23;96.07
21504;BME280;10913;51.992;9.228;2023-04-10T06:25:31;101001.97;;;5.32;96.20
21504;BME280;10913;51.992;9.228;2023-04-10T06:27:56;100997.84;;;5.42;95.27
21504;BME280;10913;51.992;9.228;2023-04-10T06:30:22;100990.34;;;5.56;95.71
21504;BME280;10913;51.992;9.228;2023-04-10T06:32:47;100983.66;;;5.68;95.54
21504;BME280;10913;51.992;9.228;2023-04-10T06:35:12;100978.81;;;5.85;95.60
21504;BME280;10913;51.992;9.228;2023-04-10T06:37:38;100986.28;;;6.04;95.46
21504;BME280;10913;51.992;9.228;2023-04-10T06:40:07;100977.06;;;6.23;94.68
21504;BME280;10913;51.992;9.228;2023-04-10T06:42:33;100969.59;;;6.41;94.42
21504;BME280;10913;51.992;9.228;2023-04-10T06:44:59;100975.28;;;6.63;95.38
21504;BME280;10913;51.992;9.228;2023-04-10T06:47:25;100970.38;;;6.81;95.72
21504;BME280;10913;51.992;9.228;2023-04-10T06:49:50;100970.75;;;6.99;95.05
21504;BME280;10913;51.992;9.228;2023-04-10T06:52:16;100962.31;;;7.17;94.62
21504;BME280;10913;51.992;9.228;2023-04-10T06:54:41;100957.44;;;7.38;94.36
21504;BME280;10913;51.992;9.228;2023-04-10T06:57:07;100953.38;;;7.58;94.05
21504;BME280;10913;51.992;9.228;2023-04-10T06:59:32;100958.94;;;7.78;93.02
21504;BME280;10913;51.992;9.228;2023-04-10T07:02:00;100956.69;;;8.06;92.40
21504;BME280;10913;51.992;9.228;2023-04-10T07:04:25;100956.34;;;8.43;91.79
21504;BME280;10913;51.992;9.228;2023-04-10T07:06:51;100952.59;;;9.00;90.31
21504;BME280;10913;51.992;9.228;2023-04-10T07:09:16;100943.78;;;10.06;88.01
21504;BME280;10913;51.992;9.228;2023-04-10T07:11:42;100940.69;;;11.98;81.82
21504;BME280;10913;51.992;9.228;2023-04-10T07:14:07;100930.59;;;14.75;73.78
21504;BME280;10913;51.992;9.228;2023-04-10T07:16:32;100921.97;;;17.40;66.05
21504;BME280;10913;51.992;9.228;2023-04-10T07:18:58;100913.25;;;19.48;60.58
21504;BME280;10913;51.992;9.228;2023-04-10T07:21:23;100906.31;;;20.90;55.62
21504;BME280;10913;51.992;9.228;2023-04-10T07:23:48;100904.38;;;21.80;52.12
21504;BME280;10913;51.992;9.228;2023-04-10T07:26:14;100904.34;;;22.61;50.91
21504;BME280;10913;51.992;9.228;2023-04-10T07:28:39;100896.38;;;23.69;48.87
21504;BME280;10913;51.992;9.228;2023-04-10T07:31:05;100886.63;;;24.67;47.48
21504;BME280;10913;51.992;9.228;2023-04-10T07:33:32;100897.53;;;25.44;46.43
21504;BME280;10913;51.992;9.228;2023-04-10T07:35:57;100889.72;;;25.69;45.58
21504;BME280;10913;51.992;9.228;2023-04-10T07:38:23;100886.88;;;25.41;45.00
21504;BME280;10913;51.992;9.228;2023-04-10T07:41:00;100892.78;;;25.93;45.06
21504;BME280;10913;51.992;9.228;2023-04-10T07:43:31;100890.59;;;26.14;43.92
21504;BME280;10913;51.992;9.228;2023-04-10T07:45:56;100889.03;;;26.10;43.35
21504;BME280;10913;51.992;9.228;2023-04-10T07:48:22;100884.25;;;25.55;43.68
21504;BME280;10913;51.992;9.228;2023-04-10T07:50:48;100878.97;;;25.98;43.84
21504;BME280;10913;51.992;9.228;2023-04-10T07:53:13;100873.81;;;26.52;43.05
21504;BME280;10913;51.992;9.228;2023-04-10T07:55:40;100872.94;;;26.51;43.08
21504;BME280;10913;51.992;9.228;2023-04-10T07:58:06;100878.44;;;26.64;42.71
21504;BME280;10913;51.992;9.228;2023-04-10T08:00:32;100866.13;;;26.72;43.16
21504;BME280;10913;51.992;9.228;2023-04-10T08:02:57;100862.50;;;26.86;42.20
21504;BME280;10913;51.992;9.228;2023-04-10T08:05:24;100867.88;;;26.17;42.45
21504;BME280;10913;51.992;9.228;2023-04-10T08:07:50;100859.75;;;25.27;44.04
21504;BME280;10913;51.992;9.228;2023-04-10T08:10:15;100857.50;;;24.72;44.29
21504;BME280;10913;51.992;9.228;2023-04-10T08:12:40;100859.25;;;24.89;43.84
21504;BME280;10913;51.992;9.228;2023-04-10T08:15:06;100856.72;;;25.33;45.00
21504;BME280;10913;51.992;9.228;2023-04-10T08:17:32;100857.97;;;24.31;44.98
21504;BME280;10913;51.992;9.228;2023-04-10T08:19:57;100860.63;;;24.49;45.21
21504;BME280;10913;51.992;9.228;2023-04-10T08:22:22;100846.00;;;24.53;45.29
21504;BME280;10913;51.992;9.228;2023-04-10T08:24:48;100848.19;;;24.93;44.50
21504;BME280;10913;51.992;9.228;2023-04-10T08:27:13;100860.97;;;24.58;44.29
21504;BME280;10913;51.992;9.228;2023-04-10T08:29:43;100847.34;;;23.42;45.50
21504;BME280;10913;51.992;9.228;2023-04-10T08:32:13;100843.56;;;23.29;46.32
21504;BME280;10913;51.992;9.228;2023-04-10T08:34:38;100847.72;;;23.53;45.72
21504;BME280;10913;51.992;9.228;2023-04-10T08:37:07;100845.25;;;22.58;46.96
21504;BME280;10913;51.992;9.228;2023-04-10T08:39:34;100834.59;;;22.36;47.01
21504;BME280;10913;51.992;9.228;2023-04-10T08:42:00;100843.06;;;22.08;47.64
21504;BME280;10913;51.992;9.228;2023-04-10T08:44:26;100825.72;;;21.54;48.33
21504;BME280;10913;51.992;9.228;2023-04-10T08:46:51;100832.31;;;21.47;48.25
21504;BME280;10913;51.992;9.228;2023-04-10T08:49:25;100824.91;;;20.88;49.80
21504;BME280;10913;51.992;9.228;2023-04-10T08:51:57;100829.53;;;20.16;49.80
21504;BME280;10913;51.992;9.228;2023-04-10T08:54:27;100821.34;;;19.45;51.38
21504;BME280;10913;51.992;9.228;2023-04-10T08:56:54;100812.59;;;19.15;52.54
21504;BME280;10913;51.992;9.228;2023-04-10T08:59:21;100814.63;;;19.07;52.08
21504;BME280;10913;51.992;9.228;2023-04-10T09:01:47;100819.94;;;18.80;52.47
21504;BME280;10913;51.992;9.228;2023-04-10T09:04:13;100795.47;;;18.92;52.92
21504;BME280;10913;51.992;9.228;2023-04-10T09:06:39;100792.06;;;18.87;52.68
21504;BME280;10913;51.992;9.228;2023-04-10T09:09:07;100792.91;;;18.32;53.73
21504;BME280;10913;51.992;9.228;2023-04-10T09:14:27;100773.34;;;18.30;54.27
21504;BME280;10913;51.992;9.228;2023-04-10T09:17:08;100779.53;;;18.03;54.19
21504;BME280;10913;51.992;9.228;2023-04-10T09:19:35;100775.81;;;17.45;54.74
21504;BME280;10913;51.992;9.228;2023-04-10T09:22:00;100782.09;;;17.42;55.46
21504;BME280;10913;51.992;9.228;2023-04-10T09:24:50;100783.28;;;17.32;55.28
21504;BME280;10913;51.992;9.228;2023-04-10T09:27:33;100765.66;;;17.25;55.88
21504;BME280;10913;51.992;9.228;2023-04-10T09:30:05;100765.50;;;17.31;56.23
21504;BME280;10913;51.992;9.228;2023-04-10T09:35:08;100767.16;;;17.37;55.66
21504;BME280;10913;51.992;9.228;2023-04-10T09:37:34;100752.09;;;17.33;55.35
21504;BME280;10913;51.992;9.228;2023-04-10T09:40:00;100750.59;;;17.22;55.37
21504;BME280;10913;51.992;9.228;2023-04-10T09:42:33;100746.38;;;17.14;55.25
21504;BME280;10913;51.992;9.228;2023-04-10T09:44:59;100749.91;;;17.16;54.86
21504;BME280;10913;51.992;9.228;2023-04-10T09:47:26;100743.19;;;17.00;56.02
21504;BME280;10913;51.992;9.228;2023-04-10T09:49:53;100736.53;;;17.16;56.07
21504;BME280;10913;51.992;9.228;2023-04-10T09:52:25;100739.75;;;17.29;56.59
21504;BME280;10913;51.992;9.228;2023-04-10T09:54:52;100721.84;;;17.32;55.55
21504;BME280;10913;51.992;9.228;2023-04-10T09:57:19;100719.34;;;17.26;54.89
21504;BME280;10913;51.992;9.228;2023-04-10T09:59:48;100728.13;;;17.31;54.95
21504;BME280;10913;51.992;9.228;2023-04-10T10:02:14;100713.56;;;17.41;54.80
21504;BME280;10913;51.992;9.228;2023-04-10T10:04:41;100701.88;;;17.45;54.04
21504;BME280;10913;51.992;9.228;2023-04-10T10:07:08;100694.69;;;17.47;52.83
21504;BME280;10913;51.992;9.228;2023-04-10T10:09:34;100710.41;;;17.27;52.84
21504;BME280;10913;51.992;9.228;2023-04-10T10:12:02;100708.53;;;17.31;53.61
21504;BME280;10913;51.992;9.228;2023-04-10T10:14:28;100699.25;;;17.44;53.16
21504;BME280;10913;51.992;9.228;2023-04-10T10:16:55;100679.44;;;17.52;52.35
21504;BME280;10913;51.992;9.228;2023-04-10T10:19:38;100689.19;;;17.53;52.40
21504;BME280;10913;51.992;9.228;2023-04-10T10:22:06;100671.84;;;17.68;53.58
21504;BME280;10913;51.992;9.228;2023-04-10T10:24:34;100674.97;;;17.82;53.04
21504;BME280;10913;51.992;9.228;2023-04-10T10:27:03;100668.66;;;17.85;52.78
21504;BME280;10913;51.992;9.228;2023-04-10T10:29:34;100663.72;;;17.73;52.16
21504;BME280;10913;51.992;9.228;2023-04-10T10:32:02;100647.38;;;17.52;52.34
21504;BME280;10913;51.992;9.228;2023-04-10T10:34:29;100655.56;;;17.46;52.56
21504;BME280;10913;51.992;9.228;2023-04-10T10:36:56;100642.97;;;17.50;52.64
21504;BME280;10913;51.992;9.228;2023-04-10T10:39:33;100629.41;;;17.58;53.13
21504;BME280;10913;51.992;9.228;2023-04-10T10:44:50;100628.31;;;17.65;52.17
21504;BME280;10913;51.992;9.228;2023-04-10T10:47:18;100620.66;;;17.82;52.21
21504;BME280;10913;51.992;9.228;2023-04-10T10:50:00;100618.63;;;17.90;51.01
21504;BME280;10913;51.992;9.228;2023-04-10T10:57:59;100609.88;;;17.85;50.98
21504;BME280;10913;51.992;9.228;2023-04-10T11:01:02;100607.53;;;18.02;50.18
21504;BME280;10913;51.992;9.228;2023-04-10T11:06:06;100590.78;;;17.69;50.98
21504;BME280;10913;51.992;9.228;2023-04-10T11:10:59;100578.47;;;17.62;51.36
21504;BME280;10913;51.992;9.228;2023-04-10T11:13:28;100566.00;;;17.63;50.47
21504;BME280;10913;51.992;9.228;2023-04-10T11:15:58;100564.75;;;17.76;50.92
21504;BME280;10913;51.992;9.228;2023-04-10T11:21:20;100557.28;;;17.85;51.82
21504;BME280;10913;51.992;9.228;2023-04-10T11:29:03;100555.84;;;17.75;51.36
21504;BME280;10913;51.992;9.228;2023-04-10T11:31:29;100540.97;;;17.67;51.74
21504;BME280;10913;51.992;9.228;2023-04-10T11:36:22;100533.28;;;17.84;51.80
21504;BME280;10913;51.992;9.228;2023-04-10T11:38:54;100529.47;;;17.91;51.82
21504;BME280;10913;51.992;9.228;2023-04-10T11:41:26;100524.59;;;18.04;52.01
21504;BME280;10913;51.992;9.228;2023-04-10T11:43:52;100507.03;;;17.97;51.43
21504;BME280;10913;51.992;9.228;2023-04-10T11:46:19;100517.72;;;17.97;52.36
21504;BME280;10913;51.992;9.228;2023-04-10T11:48:44;100519.56;;;17.95;51.84
21504;BME280;10913;51.992;9.228;2023-04-10T11:51:12;100513.25;;;17.97;51.61
21504;BME280;10913;51.992;9.228;2023-04-10T11:53:38;100498.09;;;17.98;52.32
21504;BME280;10913;51.992;9.228;2023-04-10T11:56:04;100497.94;;;18.01;51.78
21504;BME280;10913;51.992;9.228;2023-04-10T11:58:31;100497.25;;;17.96;51.70
21504;BME280;10913;51.992;9.228;2023-04-10T12:01:03;100481.91;;;18.01;51.61
21504;BME280;10913;51.992;9.228;2023-04-10T12:03:41;100494.25;;;18.05;51.58
21504;BME280;10913;51.992;9.228;2023-04-10T12:06:12;100475.47;;;18.06;51.40
21504;BME280;10913;51.992;9.228;2023-04-10T12:08:43;100475.28;;;18.12;51.66
21504;BME280;10913;51.992;9.228;2023-04-10T12:11:23;100479.47;;;18.19;52.28
21504;BME280;10913;51.992;9.228;2023-04-10T12:13:54;100477.03;;;18.13;51.79
21504;BME280;10913;51.992;9.228;2023-04-10T12:16:19;100460.31;;;18.07;51.61
21504;BME280;10913;51.992;9.228;2023-04-10T12:18:46;100453.59;;;17.95;51.77
21504;BME280;10913;51.992;9.228;2023-04-10T12:21:12;100457.47;;;17.86;52.93
21504;BME280;10913;51.992;9.228;2023-04-10T12:23:38;100460.19;;;17.85;52.39
21504;BME280;10913;51.992;9.228;2023-04-10T12:26:15;100460.50;;;17.76;52.48
21504;BME280;10913;51.992;9.228;2023-04-10T12:28:52;100450.31;;;17.87;53.44
21504;BME280;10913;51.992;9.228;2023-04-10T12:31:23;100460.47;;;18.02;53.46
21504;BME280;10913;51.992;9.228;2023-04-10T12:33:52;100452.16;;;17.85;53.47
21504;BME280;10913;51.992;9.228;2023-04-10T12:36:25;100431.50;;;17.90;53.10
21504;BME280;10913;51.992;9.228;2023-04-10T12:38:53;100435.41;;;17.80;53.27
21504;BME280;10913;51.992;9.228;2023-04-10T12:41:24;100431.50;;;17.90;53.28
21504;BME280;10913;51.992;9.228;2023-04-10T12:43:51;100432.47;;;17.87;54.08
21504;BME280;10913;51.992;9.228;2023-04-10T12:46:28;100437.34;;;18.01;53.72
21504;BME280;10913;51.992;9.228;2023-04-10T12:48:54;100426.69;;;18.00;53.29
21504;BME280;10913;51.992;9.228;2023-04-10T12:51:40;100422.56;;;17.91;54.10
21504;BME280;10913;51.992;9.228;2023-04-10T12:54:05;100430.72;;;17.86;54.12
21504;BME280;10913;51.992;9.228;2023-04-10T12:56:41;100416.47;;;17.86;53.86
21504;BME280;10913;51.992;9.228;2023-04-10T12:59:06;100409.03;;;17.96;53.43
21504;BME280;10913;51.992;9.228;2023-04-10T13:01:32;100421.13;;;18.06;53.36
21504;BME280;10913;51.992;9.228;2023-04-10T13:03:57;100398.56;;;18.14;53.68
21504;BME280;10913;51.992;9.228;2023-04-10T13:06:23;100387.03;;;18.12;52.65
21504;BME280;10913;51.992;9.228;2023-04-10T13:08:48;100383.44;;;18.13;53.43
21504;BME280;10913;51.992;9.228;2023-04-10T13:11:16;100385.28;;;18.11;53.66
21504;BME280;10913;51.992;9.228;2023-04-10T13:13:42;100395.06;;;18.12;53.16
21504;BME280;10913;51.992;9.228;2023-04-10T13:16:08;100357.63;;;18.12;53.42
21504;BME280;10913;51.992;9.228;2023-04-10T13:18:36;100367.75;;;18.28;53.51
21504;BME280;10913;51.992;9.228;2023-04-10T13:21:03;100362.00;;;18.15;53.71
21504;BME280;10913;51.992;9.228;2023-04-10T13:23:28;100348.69;;;18.13;54.04
21504;BME280;10913;51.992;9.228;2023-04-10T13:25:54;100348.69;;;18.13;54.42
21504;BME280;10913;51.992;9.228;2023-04-10T13:28:21;100340.09;;;18.04;53.45
21504;BME280;10913;51.992;9.228;2023-04-10T13:30:46;100336.00;;;18.18;53.77
21504;BME280;10913;51.992;9.228;2023-04-10T13:33:12;100332.81;;;18.32;51.69
21504;BME280;10913;51.992;9.228;2023-04-10T13:35:38;100319.81;;;18.21;51.57
21504;BME280;10913;51.992;9.228;2023-04-10T13:38:04;100309.63;;;18.33;52.62
21504;BME280;10913;51.992;9.228;2023-04-10T13:40:30;100313.44;;;18.49;53.34